Time;durP1;ratioP1;P1;durP2;ratioP2;P2;SDS_P1;SDS_P2;PMS_P1;PMS_P2;Temp;Humidity;BMP_temperature;BMP_pressure;BME280_temperature;BME280_humidity;BME280_pressure;Samples;Min_cycle;Max_cycle;Signal;HPM_P1;HPM_P2
2022/01/08 00:02:06;;;;;;;6.90;3.20;;;;;;;0.17;95.64;100348.00;6034744;28;20041;-76
2022/01/08 00:05:02;;;;;;;8.15;3.28;;;;;;;0.19;95.69;100352.19;6045639;28;20330;-74
2022/01/08 00:07:57;;;;;;;7.38;3.47;;;;;;;0.13;95.52;100342.16;6046402;28;20219;-76
2022/01/08 00:10:54;;;;;;;6.15;2.53;;;;;;;0.11;95.67;100348.38;6045260;28;20125;-75
2022/01/08 00:13:49;;;;;;;7.65;3.28;;;;;;;0.17;95.95;100348.00;6039471;28;20057;-73
2022/01/08 00:16:44;;;;;;;7.13;3.08;;;;;;;0.22;95.88;100346.00;6046226;28;20034;-75
2022/01/08 00:19:40;;;;;;;6.07;2.77;;;;;;;0.26;95.79;100353.53;6044775;28;20065;-74
2022/01/08 00:22:35;;;;;;;8.75;2.83;;;;;;;0.29;95.43;100355.13;6045593;28;20504;-76
2022/01/08 00:25:30;;;;;;;7.73;3.30;;;;;;;0.33;95.88;100351.38;6045350;28;20746;-73
2022/01/08 00:28:26;;;;;;;4.87;2.50;;;;;;;0.37;95.55;100355.50;6044304;28;20385;-76
2022/01/08 00:31:22;;;;;;;5.80;3.15;;;;;;;0.36;95.65;100348.59;6044942;28;20476;-75
2022/01/08 00:34:17;;;;;;;4.77;2.37;;;;;;;0.34;95.33;100360.91;6046823;28;20040;-74
2022/01/08 00:37:12;;;;;;;6.50;3.60;;;;;;;0.36;95.81;100353.81;6044356;28;20033;-75
2022/01/08 00:40:10;;;;;;;5.77;2.70;;;;;;;0.39;95.46;100351.03;6043531;28;20056;-75
2022/01/08 00:43:05;;;;;;;5.95;2.80;;;;;;;0.40;95.68;100347.50;6037691;28;20266;-74
2022/01/08 00:46:01;;;;;;;8.43;2.90;;;;;;;0.43;95.32;100349.94;6048709;28;20054;-77
2022/01/08 00:48:56;;;;;;;6.87;2.47;;;;;;;0.46;95.71;100354.97;6049240;28;20046;-74
2022/01/08 00:51:51;;;;;;;10.17;3.60;;;;;;;0.38;95.56;100349.38;6047986;28;20026;-75
2022/01/08 00:54:47;;;;;;;7.05;3.00;;;;;;;0.43;95.43;100348.16;6043877;28;20116;-76
2022/01/08 00:57:42;;;;;;;7.23;3.63;;;;;;;0.44;95.58;100349.81;6053197;28;20088;-74
2022/01/08 01:00:38;;;;;;;7.73;3.63;;;;;;;0.47;95.46;100336.59;6051281;28;20029;-74
2022/01/08 01:03:34;;;;;;;8.90;4.10;;;;;;;0.51;95.49;100337.28;6051184;28;20425;-76
2022/01/08 01:06:29;;;;;;;9.02;3.97;;;;;;;0.55;95.49;100342.19;6052543;28;20042;-75
2022/01/08 01:09:24;;;;;;;6.87;3.13;;;;;;;0.56;95.42;100337.84;6052141;28;20038;-74
2022/01/08 01:12:19;;;;;;;8.13;3.63;;;;;;;0.54;95.08;100342.31;6051700;28;20124;-74
2022/01/08 01:15:16;;;;;;;7.50;3.57;;;;;;;0.52;95.06;100336.31;6051496;28;20385;-75
2022/01/08 01:18:11;;;;;;;7.05;3.17;;;;;;;0.57;95.49;100331.69;6052034;28;20476;-75
2022/01/08 01:21:06;;;;;;;9.47;3.13;;;;;;;0.54;94.77;100327.47;6051863;28;20038;-75
2022/01/08 01:24:09;;;;;;;7.63;3.30;;;;;;;0.59;95.01;100337.66;6052020;28;20547;-75
2022/01/08 01:30:08;;;;;;;7.30;3.63;;;;;;;0.54;95.29;100326.66;6051696;28;20045;-75
2022/01/08 01:43:06;;;;;;;9.55;4.45;;;;;;;0.36;95.26;100330.34;6051346;28;20112;-75
2022/01/08 01:49:13;;;;;;;9.73;4.18;;;;;;;0.35;95.18;100320.88;6052034;28;20042;-76
2022/01/08 01:52:11;;;;;;;8.83;3.90;;;;;;;0.34;95.56;100324.38;6050629;28;20492;-76
2022/01/08 01:55:07;;;;;;;11.38;5.10;;;;;;;0.34;95.27;100319.19;6051417;28;20277;-75
2022/01/08 01:58:05;;;;;;;11.35;4.32;;;;;;;0.31;95.26;100321.97;6051911;28;20044;-76
2022/01/08 02:01:01;;;;;;;10.07;4.43;;;;;;;0.26;95.34;100318.78;6047721;28;20030;-76
2022/01/08 02:03:57;;;;;;;12.48;4.53;;;;;;;0.28;95.12;100317.78;6039935;28;20022;-75
2022/01/08 02:06:52;;;;;;;9.40;4.57;;;;;;;0.26;95.05;100309.22;6050482;28;20037;-76
2022/01/08 02:09:47;;;;;;;10.63;4.20;;;;;;;0.30;95.28;100307.28;6049675;28;20030;-76
2022/01/08 02:12:43;;;;;;;8.83;4.00;;;;;;;0.26;95.16;100305.75;6049089;28;20038;-76
2022/01/08 02:15:40;;;;;;;11.47;4.03;;;;;;;0.23;95.51;100308.53;6050193;28;20107;-76
2022/01/08 02:18:35;;;;;;;10.40;5.22;;;;;;;0.26;95.31;100310.97;6051670;28;20547;-75
2022/01/08 02:21:30;;;;;;;9.97;4.33;;;;;;;0.16;95.40;100317.66;6050247;28;20041;-76
2022/01/08 02:24:26;;;;;;;13.73;5.13;;;;;;;0.14;95.22;100320.34;6049655;28;20085;-74
2022/01/08 02:27:22;;;;;;;10.68;4.93;;;;;;;0.13;95.26;100320.44;6051377;28;20178;-75
2022/01/08 02:30:18;;;;;;;11.05;5.47;;;;;;;0.16;95.48;100312.44;6049224;28;20546;-76
2022/01/08 02:33:13;;;;;;;14.13;5.75;;;;;;;0.06;95.66;100326.94;6051105;28;20137;-76
2022/01/08 02:36:09;;;;;;;11.07;4.90;;;;;;;-0.07;95.63;100319.84;6050797;28;20473;-74
2022/01/08 02:39:05;;;;;;;14.47;4.63;;;;;;;-0.13;95.20;100325.41;6050607;28;20084;-76
2022/01/08 02:42:01;;;;;;;10.80;5.38;;;;;;;-0.07;95.61;100324.22;6049752;28;20034;-75
2022/01/08 02:44:56;;;;;;;11.05;5.43;;;;;;;0.04;95.57;100326.19;6050046;28;20045;-75
2022/01/08 02:47:52;;;;;;;10.77;4.83;;;;;;;0.06;95.20;100332.16;6050247;28;20040;-76
2022/01/08 02:50:48;;;;;;;12.85;5.07;;;;;;;0.03;95.25;100321.94;6041656;28;20030;-74
2022/01/08 02:53:43;;;;;;;10.90;4.83;;;;;;;-0.01;95.71;100319.50;6047470;28;20112;-75
2022/01/08 02:56:40;;;;;;;11.67;6.13;;;;;;;0.04;95.61;100313.16;6051109;28;20065;-75
2022/01/08 02:59:35;;;;;;;12.15;5.57;;;;;;;0.05;95.62;100318.28;6049865;28;20034;-74
2022/01/08 03:02:31;;;;;;;11.32;5.32;;;;;;;0.10;96.06;100318.03;6050155;28;20539;-75
2022/01/08 03:05:27;;;;;;;13.68;6.43;;;;;;;0.16;95.63;100315.06;6046419;28;20072;-77
2022/01/08 03:08:23;;;;;;;14.50;5.78;;;;;;;0.15;95.85;100313.38;6038717;28;20495;-75
2022/01/08 03:11:18;;;;;;;13.83;6.10;;;;;;;0.18;95.47;100314.03;6049433;28;20114;-75
2022/01/08 03:14:13;;;;;;;15.60;5.83;;;;;;;0.19;95.69;100317.50;6049040;28;20046;-76
2022/01/08 03:17:09;;;;;;;16.60;6.73;;;;;;;0.26;95.94;100310.97;6050691;28;20038;-76
2022/01/08 03:20:09;;;;;;;14.70;6.83;;;;;;;0.33;95.78;100304.44;6047533;28;20041;-76
2022/01/08 03:23:13;;;;;;;14.88;6.32;;;;;;;0.43;95.66;100303.84;6049457;28;20065;-77
2022/01/08 03:26:08;;;;;;;16.73;6.38;;;;;;;0.46;95.74;100308.03;6050141;28;20404;-77
2022/01/08 03:29:03;;;;;;;17.50;6.57;;;;;;;0.55;95.69;100312.66;6049024;28;20041;-76
2022/01/08 03:31:59;;;;;;;16.77;6.20;;;;;;;0.60;95.66;100321.03;6048335;28;20056;-75
2022/01/08 03:34:54;;;;;;;15.00;6.20;;;;;;;0.61;95.54;100325.34;6049563;28;20034;-76
2022/01/08 03:37:49;;;;;;;13.70;5.80;;;;;;;0.64;95.29;100333.00;6049449;28;20052;-76
2022/01/08 03:40:45;;;;;;;10.57;5.30;;;;;;;0.66;95.51;100327.66;6048570;28;20307;-76
2022/01/08 03:43:40;;;;;;;10.43;4.87;;;;;;;0.72;95.65;100325.53;6049263;28;20073;-76
2022/01/08 03:46:36;;;;;;;16.50;6.43;;;;;;;0.70;95.07;100330.00;6049101;28;20124;-77
2022/01/08 03:49:31;;;;;;;13.90;6.18;;;;;;;0.72;95.17;100330.75;6049039;28;20088;-77
2022/01/08 03:52:27;;;;;;;15.30;5.77;;;;;;;0.70;95.19;100332.63;6048935;28;20049;-76
2022/01/08 03:55:22;;;;;;;13.02;5.00;;;;;;;0.73;95.58;100335.06;6048991;28;20026;-76
2022/01/08 03:58:18;;;;;;;13.52;5.97;;;;;;;0.70;95.16;100331.78;6049227;28;20034;-76
2022/01/08 04:01:14;;;;;;;12.35;5.70;;;;;;;0.72;94.95;100338.59;6048931;28;20088;-76
2022/01/08 04:04:09;;;;;;;14.27;5.97;;;;;;;0.70;95.06;100332.63;6043339;28;20054;-76
2022/01/08 04:07:04;;;;;;;16.98;6.82;;;;;;;0.76;94.91;100324.41;6041310;28;20073;-77
2022/01/08 04:10:00;;;;;;;17.20;6.10;;;;;;;0.80;94.98;100318.06;6048771;28;20034;-77
2022/01/08 04:12:58;;;;;;;17.40;7.23;;;;;;;0.90;94.64;100318.34;6048805;28;20040;-76
2022/01/08 04:15:58;;;;;;;14.52;6.40;;;;;;;0.85;94.96;100310.81;6049400;28;20113;-76
2022/01/08 04:18:54;;;;;;;14.82;5.68;;;;;;;0.95;94.60;100322.34;6047990;28;20038;-77
2022/01/08 04:21:59;;;;;;;17.42;6.72;;;;;;;0.91;94.38;100320.88;6048436;28;20045;-77
2022/01/08 04:24:56;;;;;;;17.02;7.00;;;;;;;0.91;94.46;100320.03;6047359;28;20034;-76
2022/01/08 04:27:51;;;;;;;16.27;6.65;;;;;;;0.90;93.95;100316.56;6048619;28;20104;-76
2022/01/08 04:30:47;;;;;;;20.02;7.50;;;;;;;0.90;94.33;100319.19;6049820;28;20033;-76
2022/01/08 04:33:42;;;;;;;18.85;7.45;;;;;;;0.91;93.67;100318.25;6052619;28;20048;-76
2022/01/08 04:36:37;;;;;;;16.60;7.03;;;;;;;0.85;93.62;100317.78;6053405;28;20105;-76
2022/01/08 04:39:33;;;;;;;17.23;7.13;;;;;;;0.85;93.64;100326.44;6052636;28;20508;-76
2022/01/08 04:42:28;;;;;;;17.97;7.23;;;;;;;0.86;93.30;100314.25;6053019;28;20034;-77
2022/01/08 04:45:28;;;;;;;17.88;7.10;;;;;;;0.84;93.11;100327.41;6053555;28;20336;-76
2022/01/08 04:48:23;;;;;;;18.23;7.70;;;;;;;0.81;93.01;100330.19;6053057;28;20062;-75
2022/01/08 04:51:18;;;;;;;18.70;6.83;;;;;;;0.81;93.04;100322.38;6052028;28;20044;-75
2022/01/08 04:54:14;;;;;;;19.23;8.00;;;;;;;0.80;92.97;100328.50;6051668;28;20291;-75
2022/01/08 04:57:09;;;;;;;21.10;8.13;;;;;;;0.78;93.26;100319.94;6046799;28;20125;-75
2022/01/08 05:00:05;;;;;;;18.93;7.30;;;;;;;0.81;92.92;100332.81;6051895;28;20030;-77
2022/01/08 05:03:00;;;;;;;14.77;7.00;;;;;;;0.78;93.06;100330.38;6053154;28;20029;-76
2022/01/08 05:05:56;;;;;;;16.57;6.00;;;;;;;0.70;93.19;100331.78;6043759;28;20035;-76
2022/01/08 05:08:51;;;;;;;16.67;6.80;;;;;;;0.74;93.54;100336.72;6050255;28;20033;-76
2022/01/08 05:11:48;;;;;;;16.37;6.33;;;;;;;0.66;93.05;100328.50;6052068;28;20091;-76
2022/01/08 05:14:44;;;;;;;15.20;6.15;;;;;;;0.68;92.80;100333.66;6052082;28;20030;-76
2022/01/08 05:17:41;;;;;;;15.05;6.95;;;;;;;0.66;93.39;100340.72;6052486;28;20388;-76
2022/01/08 05:20:40;;;;;;;21.88;7.20;;;;;;;0.66;93.60;100345.94;6051423;28;20034;-76
2022/01/08 05:23:35;;;;;;;19.73;7.20;;;;;;;0.66;92.93;100341.56;6052928;28;20044;-76
2022/01/08 05:26:30;;;;;;;18.23;7.07;;;;;;;0.64;93.61;100353.00;6052101;28;20038;-76
2022/01/08 05:29:26;;;;;;;18.58;7.50;;;;;;;0.62;93.52;100334.00;6051544;28;20018;-76
2022/01/08 05:32:21;;;;;;;19.80;7.10;;;;;;;0.66;93.40;100341.56;6052022;28;20065;-76
2022/01/08 05:35:17;;;;;;;20.50;7.30;;;;;;;0.65;93.44;100345.13;6051630;28;20109;-75
2022/01/08 05:38:12;;;;;;;22.13;7.93;;;;;;;0.62;93.20;100347.91;6051542;28;20404;-75
2022/01/08 05:41:07;;;;;;;21.30;7.45;;;;;;;0.59;93.33;100351.53;6049806;28;20036;-76
2022/01/08 05:44:03;;;;;;;22.58;6.93;;;;;;;0.56;92.96;100354.31;6050493;28;20041;-76
2022/01/08 05:46:58;;;;;;;16.50;6.17;;;;;;;0.57;92.51;100363.81;6052561;28;20026;-75
2022/01/08 05:49:53;;;;;;;18.13;6.63;;;;;;;0.49;92.81;100370.44;6049379;28;20632;-75
2022/01/08 05:52:49;;;;;;;15.60;6.27;;;;;;;0.52;92.61;100367.63;6050894;28;20080;-76
2022/01/08 05:55:45;;;;;;;18.33;7.17;;;;;;;0.58;92.26;100369.88;6051956;28;20033;-76
2022/01/08 05:58:41;;;;;;;15.43;6.80;;;;;;;0.54;92.18;100368.38;6051672;28;20029;-77
2022/01/08 06:01:36;;;;;;;20.83;7.87;;;;;;;0.54;92.02;100368.38;6042336;28;20112;-76
2022/01/08 06:04:31;;;;;;;17.47;7.23;;;;;;;0.48;92.19;100382.63;6051463;28;20472;-75
2022/01/08 06:07:27;;;;;;;21.08;7.18;;;;;;;0.41;92.20;100385.66;6046131;28;20421;-74
2022/01/08 06:10:22;;;;;;;17.87;6.63;;;;;;;0.44;92.22;100385.50;6050060;28;20840;-75
2022/01/08 06:13:17;;;;;;;17.20;7.13;;;;;;;0.37;92.43;100389.41;6051136;28;20105;-75
2022/01/08 06:16:13;;;;;;;17.40;7.23;;;;;;;0.29;92.11;100387.25;6049829;28;20516;-75
2022/01/08 06:19:11;;;;;;;17.40;7.72;;;;;;;0.24;92.32;100393.66;6051183;28;20034;-75
2022/01/08 06:22:06;;;;;;;17.50;7.18;;;;;;;0.26;92.52;100390.03;6050288;28;20492;-75
2022/01/08 06:25:02;;;;;;;19.20;7.17;;;;;;;0.29;92.75;100394.22;6049237;28;20034;-75
2022/01/08 06:27:57;;;;;;;18.30;7.40;;;;;;;0.24;92.67;100391.03;6044497;28;20033;-75
2022/01/08 06:30:53;;;;;;;17.75;7.45;;;;;;;0.18;92.83;100396.59;6050959;28;20046;-76
2022/01/08 06:33:49;;;;;;;18.90;7.10;;;;;;;0.17;93.45;100410.56;6050379;28;20118;-75
2022/01/08 06:36:45;;;;;;;19.38;7.57;;;;;;;0.21;93.31;100412.06;6050927;28;20424;-75
2022/01/08 06:39:41;;;;;;;18.55;7.38;;;;;;;0.30;93.58;100421.97;6050865;28;20141;-75
2022/01/08 06:42:36;;;;;;;21.10;8.60;;;;;;;0.37;93.52;100418.94;6050122;28;20037;-76
2022/01/08 06:45:31;;;;;;;15.43;7.20;;;;;;;0.45;93.97;100421.09;6050970;28;20036;-75
2022/01/08 06:48:27;;;;;;;21.50;8.83;;;;;;;0.43;93.56;100433.38;6050522;28;20041;-76
2022/01/08 06:51:22;;;;;;;22.95;8.02;;;;;;;0.46;93.79;100438.41;6049214;28;20041;-75
2022/01/08 06:54:18;;;;;;;22.37;8.80;;;;;;;0.55;93.37;100437.88;6044334;28;20040;-75
2022/01/08 06:57:13;;;;;;;23.00;9.27;;;;;;;0.57;93.15;100439.44;6050419;28;20523;-75
2022/01/08 07:00:09;;;;;;;21.57;9.30;;;;;;;0.61;93.15;100445.34;6049693;28;20481;-76
2022/01/08 07:03:09;;;;;;;26.52;9.20;;;;;;;0.60;92.86;100446.25;6050357;28;20030;-75
2022/01/08 07:06:05;;;;;;;25.95;11.40;;;;;;;0.68;92.60;100454.47;6047959;28;20030;-75
2022/01/08 07:09:00;;;;;;;26.02;9.68;;;;;;;0.66;92.68;100456.34;6049655;28;20037;-74
2022/01/08 07:11:56;;;;;;;24.97;9.77;;;;;;;0.64;91.87;100458.22;6048228;28;20034;-75
2022/01/08 07:14:51;;;;;;;24.92;9.88;;;;;;;0.68;92.27;100456.28;6049858;28;20115;-75
2022/01/08 07:17:47;;;;;;;27.53;10.43;;;;;;;0.71;91.96;100453.47;6049612;28;20033;-74
2022/01/08 07:20:42;;;;;;;29.53;10.97;;;;;;;0.70;91.94;100460.47;6048254;28;20385;-74
2022/01/08 07:23:37;;;;;;;26.40;10.00;;;;;;;0.66;91.89;100453.72;6049596;28;20038;-75
2022/01/08 07:26:33;;;;;;;31.60;11.33;;;;;;;0.68;92.17;100454.47;6049213;28;20033;-74
2022/01/08 07:29:28;;;;;;;35.50;12.27;;;;;;;0.67;92.19;100459.78;6049038;28;20037;-74
2022/01/08 07:32:23;;;;;;;25.77;9.83;;;;;;;0.68;91.76;100448.44;6048846;28;20592;-74
2022/01/08 07:35:22;;;;;;;32.27;11.63;;;;;;;0.72;91.98;100450.78;6049891;28;20046;-74
2022/01/08 07:38:17;;;;;;;23.33;9.60;;;;;;;0.70;91.79;100447.41;6049410;28;20378;-74
2022/01/08 07:41:12;;;;;;;24.77;9.90;;;;;;;0.72;91.91;100448.16;6050469;28;20025;-75
2022/01/08 07:44:08;;;;;;;26.88;9.93;;;;;;;0.69;91.65;100434.44;6051008;28;20080;-74
2022/01/08 07:47:03;;;;;;;29.60;11.07;;;;;;;0.67;91.42;100447.59;6049227;28;20030;-74
2022/01/08 07:49:58;;;;;;;24.73;9.80;;;;;;;0.53;91.12;100444.94;6048608;28;20066;-74
2022/01/08 07:52:54;;;;;;;28.53;10.70;;;;;;;0.35;91.64;100446.03;6047893;28;20061;-74
2022/01/08 07:55:49;;;;;;;25.67;9.23;;;;;;;0.34;91.99;100452.16;6046120;28;20477;-75
2022/01/08 07:58:44;;;;;;;25.00;10.07;;;;;;;0.25;92.72;100452.66;6045161;28;20034;-75
2022/01/08 08:01:40;;;;;;;24.43;9.37;;;;;;;0.22;92.61;100450.25;6048342;28;20883;-75
2022/01/08 08:04:35;;;;;;;23.15;9.77;;;;;;;0.19;92.70;100445.22;6049105;28;20184;-75
2022/01/08 08:07:40;;;;;;;25.10;10.70;;;;;;;0.16;92.68;100440.19;6054052;28;20032;-74
2022/01/08 08:10:36;;;;;;;24.60;9.77;;;;;;;0.09;92.75;100449.25;6053692;28;20041;-74
2022/01/08 08:13:31;;;;;;;24.53;9.97;;;;;;;0.05;93.25;100438.19;6054490;28;20038;-75
2022/01/08 08:16:26;;;;;;;31.27;10.90;;;;;;;0.10;93.37;100440.53;6053269;28;20624;-75
2022/01/08 08:19:22;;;;;;;32.50;9.53;;;;;;;0.14;93.28;100432.44;6053608;28;20045;-75
2022/01/08 08:22:17;;;;;;;25.67;9.57;;;;;;;0.15;93.00;100434.13;6052114;28;20538;-75
2022/01/08 08:25:12;;;;;;;29.30;11.03;;;;;;;0.19;93.02;100429.59;6052110;28;20508;-75
2022/01/08 08:28:08;;;;;;;25.03;9.37;;;;;;;0.21;92.99;100432.94;6053866;28;20059;-75
2022/01/08 08:31:03;;;;;;;31.70;10.13;;;;;;;0.29;93.29;100441.16;6051778;28;20038;-75
2022/01/08 08:33:58;;;;;;;28.40;11.20;;;;;;;0.33;92.95;100424.38;6053689;28;20443;-74
2022/01/08 08:36:54;;;;;;;25.20;9.30;;;;;;;0.44;93.07;100424.59;6053179;28;20034;-75
2022/01/08 08:39:49;;;;;;;23.53;9.20;;;;;;;0.60;92.91;100417.56;6053777;28;20481;-74
2022/01/08 08:42:44;;;;;;;34.53;10.95;;;;;;;0.71;92.54;100415.16;6053358;28;20507;-75
2022/01/08 08:45:40;;;;;;;22.60;8.77;;;;;;;0.85;91.80;100417.78;6053195;28;20042;-75
2022/01/08 08:48:35;;;;;;;25.05;9.20;;;;;;;1.00;91.37;100424.72;6053060;28;20283;-75
2022/01/08 08:51:31;;;;;;;25.93;9.60;;;;;;;1.05;90.82;100417.44;6051365;28;20069;-75
2022/01/08 08:54:26;;;;;;;24.13;9.17;;;;;;;1.15;91.19;100418.53;6053282;28;20393;-75
2022/01/08 08:57:21;;;;;;;24.45;9.30;;;;;;;1.25;90.03;100425.81;6052930;28;20393;-76
2022/01/08 09:00:17;;;;;;;28.20;9.03;;;;;;;1.34;90.13;100423.47;6051978;28;20052;-75
2022/01/08 09:03:13;;;;;;;23.35;9.10;;;;;;;1.38;90.17;100426.75;6052449;28;20026;-74
2022/01/08 09:06:08;;;;;;;29.50;9.55;;;;;;;1.44;89.08;100414.13;6049483;28;20038;-76
2022/01/08 09:09:06;;;;;;;25.00;10.43;;;;;;;1.55;88.97;100416.09;6043453;28;20045;-75
2022/01/08 09:12:03;;;;;;;22.10;9.15;;;;;;;1.60;88.78;100399.16;6051174;28;20058;-75
2022/01/08 09:14:58;;;;;;;26.23;8.80;;;;;;;1.59;88.15;100402.72;6050957;28;20109;-75
2022/01/08 09:17:56;;;;;;;24.03;9.47;;;;;;;1.62;88.95;100404.31;6052403;28;20038;-76
2022/01/08 09:20:52;;;;;;;23.17;9.30;;;;;;;1.63;88.49;100406.00;6051815;28;20061;-76
2022/01/08 09:23:47;;;;;;;26.08;9.52;;;;;;;1.73;87.95;100415.75;6052013;28;20087;-75
2022/01/08 09:26:43;;;;;;;27.08;9.30;;;;;;;1.79;87.62;100411.91;6044168;28;20483;-75
2022/01/08 09:29:38;;;;;;;26.63;9.33;;;;;;;1.93;87.77;100417.06;6049824;28;20389;-75
2022/01/08 09:32:34;;;;;;;23.17;9.00;;;;;;;1.94;87.15;100421.38;6049365;28;20595;-75
2022/01/08 09:35:29;;;;;;;25.42;9.55;;;;;;;1.82;87.28;100419.56;6050385;28;20297;-75
2022/01/08 09:38:26;;;;;;;26.40;9.98;;;;;;;1.69;87.43;100419.50;6049014;28;20037;-75
2022/01/08 09:41:22;;;;;;;28.83;9.90;;;;;;;1.90;87.62;100425.16;6048394;28;20041;-75
2022/01/08 09:44:17;;;;;;;24.57;9.40;;;;;;;1.96;87.93;100411.66;6041221;28;20029;-74
2022/01/08 09:47:13;;;;;;;26.45;8.88;;;;;;;1.86;87.44;100418.41;6048891;28;20109;-73
2022/01/08 09:50:09;;;;;;;25.02;8.93;;;;;;;1.90;87.84;100419.91;6051442;28;20034;-74
2022/01/08 09:53:04;;;;;;;26.77;9.98;;;;;;;2.05;87.50;100405.00;6050569;28;20034;-74
2022/01/08 09:56:00;;;;;;;23.30;9.00;;;;;;;2.14;86.53;100413.09;6050656;28;20042;-74
2022/01/08 09:58:56;;;;;;;24.85;9.70;;;;;;;2.24;86.54;100414.16;6049619;28;20636;-75
2022/01/08 10:01:54;;;;;;;26.13;9.27;;;;;;;2.28;86.32;100420.84;6048975;28;20038;-75
2022/01/08 10:04:50;;;;;;;23.33;8.73;;;;;;;2.32;85.88;100411.88;6049599;28;20073;-75
2022/01/08 10:07:59;;;;;;;21.63;8.85;;;;;;;2.36;85.64;100410.72;6050920;28;20037;-75
2022/01/08 10:11:00;;;;;;;28.15;10.18;;;;;;;2.38;85.18;100403.63;6038868;28;20441;-74
2022/01/08 10:14:05;;;;;;;23.83;10.30;;;;;;;2.38;85.32;100406.25;6050712;28;20037;-76
2022/01/08 10:17:15;;;;;;;21.75;9.43;;;;;;;2.55;85.20;100399.06;6039003;28;20040;-76
2022/01/08 10:20:10;;;;;;;23.75;8.80;;;;;;;2.67;84.91;100387.72;6050492;28;20040;-75
2022/01/08 10:23:16;;;;;;;24.43;8.83;;;;;;;2.69;84.19;100391.91;6051228;28;20393;-76
2022/01/08 10:26:13;;;;;;;25.60;9.02;;;;;;;2.76;84.14;100392.34;6050711;28;20388;-75
2022/01/08 10:29:14;;;;;;;21.63;8.90;;;;;;;2.81;83.96;100398.09;6050067;28;20034;-75
2022/01/08 10:32:09;;;;;;;24.60;8.18;;;;;;;2.76;83.42;100393.19;6049084;28;20053;-75
2022/01/08 10:35:05;;;;;;;20.73;7.53;;;;;;;2.71;83.41;100399.69;6050714;28;20046;-75
2022/01/08 10:38:00;;;;;;;19.38;8.27;;;;;;;2.75;83.80;100395.91;6049322;28;20533;-74
2022/01/08 10:40:58;;;;;;;23.23;9.10;;;;;;;2.80;84.17;100391.22;6050265;28;20485;-75
2022/01/08 10:44:18;;;;;;;29.92;9.60;;;;;;;2.80;83.76;100388.59;6050482;28;20169;-74
2022/01/08 10:47:17;;;;;;;19.60;8.38;;;;;;;2.83;83.93;100381.34;6051107;28;20030;-74
2022/01/08 10:50:12;;;;;;;22.08;8.95;;;;;;;2.80;83.37;100383.38;6049862;28;20525;-74
2022/01/08 10:53:07;;;;;;;20.43;7.50;;;;;;;2.78;84.35;100386.06;6050588;28;20148;-74
2022/01/08 10:56:20;;;;;;;24.13;8.65;;;;;;;2.76;84.06;100367.03;6050683;28;20092;-74
2022/01/08 10:59:19;;;;;;;24.88;8.18;;;;;;;2.73;84.00;100376.84;6050051;28;20488;-74
2022/01/08 11:02:15;;;;;;;22.02;9.20;;;;;;;2.73;83.94;100369.00;6049429;28;20033;-74
2022/01/08 11:05:11;;;;;;;25.20;8.70;;;;;;;2.78;83.90;100372.13;6048759;28;20037;-74
2022/01/08 11:08:13;;;;;;;18.05;7.38;;;;;;;2.83;83.71;100368.25;6049719;28;20036;-73
2022/01/08 11:11:09;;;;;;;21.33;8.40;;;;;;;2.93;83.78;100371.94;6040214;28;20042;-73
2022/01/08 11:14:07;;;;;;;21.73;8.55;;;;;;;3.09;83.49;100361.22;6048640;28;20447;-74
2022/01/08 11:17:03;;;;;;;20.05;7.00;;;;;;;3.19;83.47;100357.00;6049041;28;20034;-73
2022/01/08 11:20:15;;;;;;;24.50;7.50;;;;;;;3.17;82.71;100358.91;6049471;28;20034;-74
2022/01/08 11:23:11;;;;;;;30.10;8.82;;;;;;;3.09;82.53;100347.28;6049880;28;20045;-74
2022/01/08 11:26:08;;;;;;;24.77;8.95;;;;;;;2.96;83.26;100348.13;6048532;28;20034;-73
2022/01/08 11:29:04;;;;;;;25.92;9.05;;;;;;;2.98;83.73;100342.81;6050422;28;20069;-74
2022/01/08 11:32:00;;;;;;;23.20;9.07;;;;;;;2.90;83.56;100342.50;6048576;28;20056;-73
2022/01/08 11:34:56;;;;;;;21.48;7.82;;;;;;;2.84;83.67;100342.94;6049742;28;20034;-74
2022/01/08 11:37:55;;;;;;;21.80;8.45;;;;;;;2.74;84.51;100331.44;6049606;28;20046;-74
2022/01/08 11:40:52;;;;;;;20.48;7.80;;;;;;;2.84;84.90;100340.31;6047891;28;20397;-74
2022/01/08 11:43:50;;;;;;;27.17;9.52;;;;;;;2.82;84.57;100329.09;6049829;28;20030;-72
2022/01/08 11:46:46;;;;;;;26.05;8.50;;;;;;;2.74;84.05;100329.66;6049145;28;20080;-72
2022/01/08 11:49:41;;;;;;;24.27;8.93;;;;;;;2.69;84.39;100323.06;6049288;28;20487;-73
2022/01/08 11:52:37;;;;;;;24.42;8.27;;;;;;;2.60;84.61;100324.53;6045748;28;20059;-73
2022/01/08 11:55:35;;;;;;;25.37;9.17;;;;;;;2.64;84.71;100325.13;6048101;28;20469;-72
2022/01/08 11:58:33;;;;;;;25.38;9.00;;;;;;;2.64;84.81;100325.13;6047373;28;20099;-73
2022/01/08 12:01:28;;;;;;;19.13;8.55;;;;;;;2.60;85.31;100319.28;6046360;28;20037;-73
2022/01/08 12:04:28;;;;;;;21.23;7.73;;;;;;;2.74;84.54;100310.47;6046519;28;20030;-73
2022/01/08 12:07:33;;;;;;;24.52;8.45;;;;;;;2.81;84.36;100304.72;6046319;28;20030;-73
2022/01/08 12:10:31;;;;;;;20.88;8.70;;;;;;;2.80;83.57;100299.59;6048124;28;20100;-73
2022/01/08 12:13:46;;;;;;;20.77;6.90;;;;;;;2.89;82.74;100293.69;6048883;28;20038;-74
2022/01/08 12:16:46;;;;;;;22.73;7.18;;;;;;;2.97;82.25;100294.00;6048088;28;20041;-73
2022/01/08 12:19:45;;;;;;;30.40;9.65;;;;;;;2.93;82.45;100300.41;6048947;28;20088;-73
2022/01/08 12:22:40;;;;;;;38.80;15.13;;;;;;;2.78;82.42;100291.81;6049006;28;20121;-72
2022/01/08 12:25:40;;;;;;;23.17;8.27;;;;;;;2.67;83.25;100293.50;6048702;28;20045;-73
2022/01/08 12:28:47;;;;;;;26.05;9.68;;;;;;;2.62;83.76;100280.75;6048225;28;20273;-72
2022/01/08 12:31:47;;;;;;;19.30;7.38;;;;;;;2.56;83.81;100285.56;6048522;28;20526;-74
2022/01/08 12:34:46;;;;;;;25.95;9.18;;;;;;;2.60;83.40;100273.97;6049142;28;20530;-73
2022/01/08 12:37:44;;;;;;;28.05;10.23;;;;;;;2.72;83.91;100279.16;6048883;28;20096;-73
2022/01/08 12:40:41;;;;;;;42.72;17.42;;;;;;;2.87;83.21;100269.41;6047342;28;20037;-74
2022/01/08 12:43:37;;;;;;;24.02;9.00;;;;;;;2.90;82.77;100270.03;6047417;28;20032;-73
2022/01/08 12:46:37;;;;;;;28.38;12.40;;;;;;;2.96;81.53;100266.16;6047712;28;20029;-73
2022/01/08 12:49:33;;;;;;;19.35;7.88;;;;;;;2.83;82.12;100254.84;6047940;28;20512;-73
2022/01/08 12:52:28;;;;;;;24.55;10.15;;;;;;;2.83;81.69;100249.59;6051278;28;20096;-75
2022/01/08 12:55:23;;;;;;;30.17;13.53;;;;;;;2.78;81.75;100254.34;6051770;28;20061;-73
2022/01/08 12:58:31;;;;;;;27.53;8.80;;;;;;;2.81;81.40;100248.88;6052355;28;20030;-73
2022/01/08 13:01:26;;;;;;;15.77;6.95;;;;;;;2.87;81.59;100241.44;6052043;28;20026;-74
2022/01/08 13:04:23;;;;;;;18.92;7.75;;;;;;;2.85;80.87;100255.59;6052967;28;20183;-73
2022/01/08 13:07:21;;;;;;;38.40;15.40;;;;;;;2.95;80.92;100256.59;6051142;28;20033;-73
2022/01/08 13:10:17;;;;;;;21.00;8.00;;;;;;;2.91;80.99;100249.91;6051037;28;20421;-74
2022/01/08 13:13:13;;;;;;;19.67;7.82;;;;;;;2.89;81.77;100242.16;6051549;28;20032;-74
2022/01/08 13:16:26;;;;;;;21.17;8.50;;;;;;;2.93;81.51;100237.56;6050980;28;20033;-74
2022/01/08 13:19:26;;;;;;;28.55;12.57;;;;;;;2.94;81.55;100231.34;6052334;28;20032;-74
2022/01/08 13:22:22;;;;;;;21.17;7.35;;;;;;;3.08;80.73;100236.44;6049842;28;20045;-74
2022/01/08 13:25:17;;;;;;;14.23;6.17;;;;;;;3.03;81.21;100222.84;6051836;28;20042;-74
2022/01/08 13:28:20;;;;;;;15.05;6.93;;;;;;;3.04;81.00;100219.31;6051176;28;20057;-74
2022/01/08 13:31:15;;;;;;;31.60;10.77;;;;;;;3.01;80.67;100214.28;6050680;28;20038;-74
2022/01/08 13:34:11;;;;;;;14.50;6.63;;;;;;;3.04;81.06;100208.81;6050229;28;20041;-74
2022/01/08 13:37:17;;;;;;;15.10;6.20;;;;;;;3.02;80.15;100212.50;6051741;28;20045;-75
2022/01/08 13:40:13;;;;;;;18.13;6.18;;;;;;;2.97;79.75;100213.66;6046604;28;20456;-74
2022/01/08 13:43:08;;;;;;;18.33;7.40;;;;;;;2.95;80.52;100205.09;6051125;28;20042;-73
2022/01/08 13:46:05;;;;;;;19.00;7.00;;;;;;;2.91;80.44;100202.78;6051962;28;20532;-74
2022/01/08 13:49:03;;;;;;;13.35;5.95;;;;;;;2.96;80.69;100206.72;6051073;28;20103;-73
2022/01/08 13:51:58;;;;;;;20.10;5.78;;;;;;;2.94;80.32;100194.69;6050710;28;20551;-74
2022/01/08 13:55:12;;;;;;;24.40;8.10;;;;;;;2.88;81.47;100192.53;6049998;28;20033;-74
2022/01/08 13:58:09;;;;;;;;;;;;;;;2.93;81.25;100200.91;6050598;28;20034;-74
2022/01/08 14:01:07;;;;;;;18.73;8.30;;;;;;;2.81;81.03;100188.69;6050172;28;19913;-74